sensor_id;sensor_type;location;lat;lon;timestamp;pressure;altitude;pressure_sealevel;temperature;humidity
69257;BME280;56376;53.356;-1.748;2022-09-09T00:00:38;98273.81;;;14.56;100.00
69257;BME280;56376;53.356;-1.748;2022-09-09T00:03:16;98275.50;;;14.57;100.00
69257;BME280;56376;53.356;-1.748;2022-09-09T00:09:12;98274.63;;;14.56;100.00
69257;BME280;56376;53.356;-1.748;2022-09-09T00:11:50;98270.25;;;14.57;100.00
69257;BME280;56376;53.356;-1.748;2022-09-09T00:17:43;98274.53;;;14.58;100.00
69257;BME280;56376;53.356;-1.748;2022-09-09T00:20:28;98266.75;;;14.56;100.00
69257;BME280;56376;53.356;-1.748;2022-09-09T00:23:12;98275.38;;;14.58;100.00
69257;BME280;56376;53.356;-1.748;2022-09-09T00:28:18;98272.00;;;14.56;100.00
69257;BME280;56376;53.356;-1.748;2022-09-09T00:30:44;98277.25;;;14.56;100.00
69257;BME280;56376;53.356;-1.748;2022-09-09T00:33:15;98274.63;;;14.56;100.00
69257;BME280;56376;53.356;-1.748;2022-09-09T00:35:47;98274.63;;;14.56;100.00
69257;BME280;56376;53.356;-1.748;2022-09-09T00:38:55;98269.50;;;14.55;100.00
69257;BME280;56376;53.356;-1.748;2022-09-09T00:41:31;98277.25;;;14.56;100.00
69257;BME280;56376;53.356;-1.748;2022-09-09T00:49:22;98274.63;;;14.56;100.00
69257;BME280;56376;53.356;-1.748;2022-09-09T00:57:37;98276.44;;;14.56;100.00
69257;BME280;56376;53.356;-1.748;2022-09-09T01:00:16;98269.38;;;14.56;100.00
69257;BME280;56376;53.356;-1.748;2022-09-09T01:10:59;98270.25;;;14.57;100.00
69257;BME280;56376;53.356;-1.748;2022-09-09T01:13:26;98269.38;;;14.56;100.00
69257;BME280;56376;53.356;-1.748;2022-09-09T01:15:53;98267.72;;;14.55;100.00
69257;BME280;56376;53.356;-1.748;2022-09-09T01:18:26;98276.44;;;14.56;100.00
69257;BME280;56376;53.356;-1.748;2022-09-09T01:21:08;98268.75;;;14.53;100.00
69257;BME280;56376;53.356;-1.748;2022-09-09T01:26:34;98273.16;;;14.52;100.00
69257;BME280;56376;53.356;-1.748;2022-09-09T01:29:00;98267.19;;;14.50;100.00
69257;BME280;56376;53.356;-1.748;2022-09-09T01:31:31;98272.44;;;14.50;100.00
69257;BME280;56376;53.356;-1.748;2022-09-09T01:33:58;98270.78;;;14.49;100.00
69257;BME280;56376;53.356;-1.748;2022-09-09T01:36:32;98276.97;;;14.48;100.00
69257;BME280;56376;53.356;-1.748;2022-09-09T01:39:01;98269.22;;;14.46;100.00
69257;BME280;56376;53.356;-1.748;2022-09-09T01:41:27;98276.34;;;14.44;100.00
69257;BME280;56376;53.356;-1.748;2022-09-09T01:43:53;98272.03;;;14.43;100.00
69257;BME280;56376;53.356;-1.748;2022-09-09T01:46:21;98280.03;;;14.42;100.00
69257;BME280;56376;53.356;-1.748;2022-09-09T01:48:48;98274.06;;;14.40;100.00
69257;BME280;56376;53.356;-1.748;2022-09-09T01:51:14;98261.97;;;14.37;100.00
69257;BME280;56376;53.356;-1.748;2022-09-09T01:53:40;98260.28;;;14.36;100.00
69257;BME280;56376;53.356;-1.748;2022-09-09T01:56:38;98261.34;;;14.34;100.00
69257;BME280;56376;53.356;-1.748;2022-09-09T02:02:11;98267.13;;;14.26;100.00
69257;BME280;56376;53.356;-1.748;2022-09-09T02:04:39;98264.75;;;14.23;100.00
69257;BME280;56376;53.356;-1.748;2022-09-09T02:07:22;98264.13;;;14.19;100.00
69257;BME280;56376;53.356;-1.748;2022-09-09T02:10:00;98263.50;;;14.16;100.00
69257;BME280;56376;53.356;-1.748;2022-09-09T02:12:27;98258.25;;;14.16;100.00
69257;BME280;56376;53.356;-1.748;2022-09-09T02:15:00;98257.41;;;14.15;100.00
69257;BME280;56376;53.356;-1.748;2022-09-09T02:17:34;98255.75;;;14.14;100.00
69257;BME280;56376;53.356;-1.748;2022-09-09T02:20:10;98255.84;;;14.13;100.00
69257;BME280;56376;53.356;-1.748;2022-09-09T02:22:39;98273.38;;;14.12;100.00
69257;BME280;56376;53.356;-1.748;2022-09-09T02:25:10;98254.28;;;14.10;100.00
69257;BME280;56376;53.356;-1.748;2022-09-09T02:27:37;98260.47;;;14.09;100.00
69257;BME280;56376;53.356;-1.748;2022-09-09T02:30:03;98270.16;;;14.09;100.00
69257;BME280;56376;53.356;-1.748;2022-09-09T02:32:31;98275.50;;;14.07;100.00
69257;BME280;56376;53.356;-1.748;2022-09-09T02:35:01;98267.72;;;14.05;100.00
69257;BME280;56376;53.356;-1.748;2022-09-09T02:37:31;98272.38;;;14.02;100.00
69257;BME280;56376;53.356;-1.748;2022-09-09T02:40:02;98268.03;;;14.01;100.00
69257;BME280;56376;53.356;-1.748;2022-09-09T02:42:28;98271.72;;;13.98;100.00
69257;BME280;56376;53.356;-1.748;2022-09-09T02:44:53;98264.91;;;13.96;100.00
69257;BME280;56376;53.356;-1.748;2022-09-09T02:47:36;98269.44;;;13.94;100.00
69257;BME280;56376;53.356;-1.748;2022-09-09T02:50:20;98278.25;;;13.93;100.00
69257;BME280;56376;53.356;-1.748;2022-09-09T02:55:39;98269.97;;;13.86;100.00
69257;BME280;56376;53.356;-1.748;2022-09-09T02:58:06;98271.03;;;13.83;100.00
69257;BME280;56376;53.356;-1.748;2022-09-09T03:00:34;98272.09;;;13.81;100.00
69257;BME280;56376;53.356;-1.748;2022-09-09T03:03:04;98271.44;;;13.77;100.00
69257;BME280;56376;53.356;-1.748;2022-09-09T03:05:29;98269.78;;;13.76;100.00
69257;BME280;56376;53.356;-1.748;2022-09-09T03:07:54;98269.97;;;13.73;100.00
69257;BME280;56376;53.356;-1.748;2022-09-09T03:10:20;98271.88;;;13.71;100.00
69257;BME280;56376;53.356;-1.748;2022-09-09T03:12:45;98273.75;;;13.69;100.00
69257;BME280;56376;53.356;-1.748;2022-09-09T03:15:11;98273.03;;;13.67;100.00
69257;BME280;56376;53.356;-1.748;2022-09-09T03:17:36;98275.75;;;13.66;100.00
69257;BME280;56376;53.356;-1.748;2022-09-09T03:20:03;98275.03;;;13.63;100.00
69257;BME280;56376;53.356;-1.748;2022-09-09T03:22:29;98275.13;;;13.62;100.00
69257;BME280;56376;53.356;-1.748;2022-09-09T03:24:54;98277.13;;;13.58;100.00
69257;BME280;56376;53.356;-1.748;2022-09-09T03:27:20;98280.81;;;13.56;100.00
69257;BME280;56376;53.356;-1.748;2022-09-09T03:29:46;98286.06;;;13.56;100.00
69257;BME280;56376;53.356;-1.748;2022-09-09T03:32:12;98284.25;;;13.56;100.00
69257;BME280;56376;53.356;-1.748;2022-09-09T03:34:38;98289.59;;;13.55;100.00
69257;BME280;56376;53.356;-1.748;2022-09-09T03:37:06;98283.53;;;13.54;100.00
69257;BME280;56376;53.356;-1.748;2022-09-09T03:39:31;98286.16;;;13.54;100.00
69257;BME280;56376;53.356;-1.748;2022-09-09T03:41:57;98283.63;;;13.53;100.00
69257;BME280;56376;53.356;-1.748;2022-09-09T03:44:22;98279.31;;;13.52;100.00
69257;BME280;56376;53.356;-1.748;2022-09-09T03:46:48;98274.28;;;13.49;100.00
69257;BME280;56376;53.356;-1.748;2022-09-09T03:49:13;98270.94;;;13.47;100.00
69257;BME280;56376;53.356;-1.748;2022-09-09T03:51:38;98277.22;;;13.44;100.00
69257;BME280;56376;53.356;-1.748;2022-09-09T03:54:05;98282.69;;;13.41;100.00
69257;BME280;56376;53.356;-1.748;2022-09-09T03:56:33;98291.59;;;13.38;100.00
69257;BME280;56376;53.356;-1.748;2022-09-09T03:58:59;98285.63;;;13.36;100.00
69257;BME280;56376;53.356;-1.748;2022-09-09T04:01:24;98290.22;;;13.33;100.00
69257;BME280;56376;53.356;-1.748;2022-09-09T04:03:50;98293.03;;;13.30;100.00
69257;BME280;56376;53.356;-1.748;2022-09-09T04:06:15;98293.16;;;13.28;100.00
69257;BME280;56376;53.356;-1.748;2022-09-09T04:08:42;98297.72;;;13.25;100.00
69257;BME280;56376;53.356;-1.748;2022-09-09T04:11:08;98293.53;;;13.22;100.00
69257;BME280;56376;53.356;-1.748;2022-09-09T04:13:34;98294.47;;;13.21;100.00
69257;BME280;56376;53.356;-1.748;2022-09-09T04:16:02;98291.03;;;13.20;100.00
69257;BME280;56376;53.356;-1.748;2022-09-09T04:18:28;98293.53;;;13.22;100.00
69257;BME280;56376;53.356;-1.748;2022-09-09T04:20:54;98295.22;;;13.23;100.00
69257;BME280;56376;53.356;-1.748;2022-09-09T04:23:23;98287.34;;;13.23;100.00
69257;BME280;56376;53.356;-1.748;2022-09-09T04:25:53;98292.47;;;13.25;100.00
69257;BME280;56376;53.356;-1.748;2022-09-09T04:28:21;98296.16;;;13.22;100.00
69257;BME280;56376;53.356;-1.748;2022-09-09T04:30:47;98304.13;;;13.20;100.00
69257;BME280;56376;53.356;-1.748;2022-09-09T04:33:13;98300.66;;;13.20;100.00
69257;BME280;56376;53.356;-1.748;2022-09-09T04:35:44;98292.78;;;13.20;100.00
69257;BME280;56376;53.356;-1.748;2022-09-09T04:38:10;98297.09;;;13.21;100.00
69257;BME280;56376;53.356;-1.748;2022-09-09T04:40:35;98294.34;;;13.23;100.00
69257;BME280;56376;53.356;-1.748;2022-09-09T04:43:02;98300.47;;;13.23;100.00
69257;BME280;56376;53.356;-1.748;2022-09-09T04:45:30;98300.47;;;13.23;100.00
69257;BME280;56376;53.356;-1.748;2022-09-09T04:47:56;98299.72;;;13.21;100.00
69257;BME280;56376;53.356;-1.748;2022-09-09T04:50:21;98301.38;;;13.22;100.00
69257;BME280;56376;53.356;-1.748;2022-09-09T04:52:47;98304.75;;;13.24;100.00
69257;BME280;56376;53.356;-1.748;2022-09-09T04:55:13;98295.94;;;13.25;100.00
69257;BME280;56376;53.356;-1.748;2022-09-09T04:57:39;98309.03;;;13.25;100.00
69257;BME280;56376;53.356;-1.748;2022-09-09T05:00:05;98303.75;;;13.27;100.00
69257;BME280;56376;53.356;-1.748;2022-09-09T05:02:30;98309.00;;;13.27;100.00
69257;BME280;56376;53.356;-1.748;2022-09-09T05:04:57;98315.81;;;13.29;100.00
69257;BME280;56376;53.356;-1.748;2022-09-09T05:07:23;98317.47;;;13.30;100.00
69257;BME280;56376;53.356;-1.748;2022-09-09T05:09:49;98321.88;;;13.30;100.00
69257;BME280;56376;53.356;-1.748;2022-09-09T05:12:15;98326.31;;;13.29;100.00
69257;BME280;56376;53.356;-1.748;2022-09-09T05:14:42;98326.31;;;13.29;100.00
69257;BME280;56376;53.356;-1.748;2022-09-09T05:17:08;98325.34;;;13.30;100.00
69257;BME280;56376;53.356;-1.748;2022-09-09T05:19:33;98334.78;;;13.33;100.00
69257;BME280;56376;53.356;-1.748;2022-09-09T05:21:58;98327.78;;;13.33;100.00
69257;BME280;56376;53.356;-1.748;2022-09-09T05:24:24;98337.31;;;13.34;100.00
69257;BME280;56376;53.356;-1.748;2022-09-09T05:26:49;98325.88;;;13.35;100.00
69257;BME280;56376;53.356;-1.748;2022-09-09T05:29:15;98334.50;;;13.37;100.00
69257;BME280;56376;53.356;-1.748;2022-09-09T05:31:44;98330.94;;;13.38;100.00
69257;BME280;56376;53.356;-1.748;2022-09-09T05:34:10;98337.03;;;13.39;100.00
69257;BME280;56376;53.356;-1.748;2022-09-09T05:36:36;98330.19;;;13.36;100.00
69257;BME280;56376;53.356;-1.748;2022-09-09T05:39:01;98333.66;;;13.37;100.00
69257;BME280;56376;53.356;-1.748;2022-09-09T05:41:27;98330.28;;;13.35;100.00
69257;BME280;56376;53.356;-1.748;2022-09-09T05:43:54;98334.78;;;13.33;100.00
69257;BME280;56376;53.356;-1.748;2022-09-09T05:46:21;98338.47;;;13.30;100.00
69257;BME280;56376;53.356;-1.748;2022-09-09T05:48:47;98343.06;;;13.27;100.00
69257;BME280;56376;53.356;-1.748;2022-09-09T05:51:18;98338.84;;;13.24;100.00
69257;BME280;56376;53.356;-1.748;2022-09-09T05:53:46;98339.06;;;13.21;100.00
69257;BME280;56376;53.356;-1.748;2022-09-09T05:56:20;98335.69;;;13.19;100.00
69257;BME280;56376;53.356;-1.748;2022-09-09T05:58:58;98339.25;;;13.18;100.00
69257;BME280;56376;53.356;-1.748;2022-09-09T06:01:27;98348.06;;;13.17;100.00
69257;BME280;56376;53.356;-1.748;2022-09-09T06:03:53;98350.78;;;13.15;100.00
69257;BME280;56376;53.356;-1.748;2022-09-09T06:06:21;98350.13;;;13.12;100.00
69257;BME280;56376;53.356;-1.748;2022-09-09T06:08:48;98358.13;;;13.10;100.00
69257;BME280;56376;53.356;-1.748;2022-09-09T06:11:21;98359.13;;;13.08;100.00
69257;BME280;56376;53.356;-1.748;2022-09-09T06:13:47;98358.28;;;13.07;100.00
69257;BME280;56376;53.356;-1.748;2022-09-09T06:16:15;98361.88;;;13.06;100.00
69257;BME280;56376;53.356;-1.748;2022-09-09T06:18:41;98362.78;;;13.05;100.00
69257;BME280;56376;53.356;-1.748;2022-09-09T06:21:13;98373.19;;;13.07;100.00
69257;BME280;56376;53.356;-1.748;2022-09-09T06:23:40;98369.81;;;13.05;100.00
69257;BME280;56376;53.356;-1.748;2022-09-09T06:26:12;98375.06;;;13.05;100.00
69257;BME280;56376;53.356;-1.748;2022-09-09T06:28:38;98363.66;;;13.06;100.00
69257;BME280;56376;53.356;-1.748;2022-09-09T06:31:08;98375.91;;;13.05;100.00
69257;BME280;56376;53.356;-1.748;2022-09-09T06:33:36;98376.84;;;13.04;100.00
69257;BME280;56376;53.356;-1.748;2022-09-09T06:36:03;98377.81;;;13.03;100.00
69257;BME280;56376;53.356;-1.748;2022-09-09T06:38:29;98380.31;;;13.05;100.00
69257;BME280;56376;53.356;-1.748;2022-09-09T06:40:57;98378.44;;;13.07;100.00
69257;BME280;56376;53.356;-1.748;2022-09-09T06:43:24;98380.00;;;13.09;100.00
69257;BME280;56376;53.356;-1.748;2022-09-09T06:45:57;98384.13;;;13.13;100.00
69257;BME280;56376;53.356;-1.748;2022-09-09T06:48:23;98383.94;;;13.16;100.00
69257;BME280;56376;53.356;-1.748;2022-09-09T06:50:49;98394.22;;;13.19;100.00
69257;BME280;56376;53.356;-1.748;2022-09-09T06:53:17;98401.25;;;13.19;100.00
69257;BME280;56376;53.356;-1.748;2022-09-09T06:55:45;98398.53;;;13.20;100.00
69257;BME280;56376;53.356;-1.748;2022-09-09T06:58:10;98396.63;;;13.23;100.00
69257;BME280;56376;53.356;-1.748;2022-09-09T07:00:36;98398.31;;;13.24;100.00
69257;BME280;56376;53.356;-1.748;2022-09-09T07:03:04;98392.03;;;13.26;100.00
69257;BME280;56376;53.356;-1.748;2022-09-09T07:05:29;98397.94;;;13.30;100.00
69257;BME280;56376;53.356;-1.748;2022-09-09T07:07:54;98402.16;;;13.32;100.00
69257;BME280;56376;53.356;-1.748;2022-09-09T07:10:20;98401.00;;;13.36;100.00
69257;BME280;56376;53.356;-1.748;2022-09-09T07:12:51;98405.09;;;13.40;100.00
69257;BME280;56376;53.356;-1.748;2022-09-09T07:15:17;98397.88;;;13.44;100.00
69257;BME280;56376;53.356;-1.748;2022-09-09T07:17:44;98407.13;;;13.50;100.00
69257;BME280;56376;53.356;-1.748;2022-09-09T07:20:09;98408.63;;;13.54;100.00
69257;BME280;56376;53.356;-1.748;2022-09-09T07:22:35;98419.66;;;13.59;100.00
69257;BME280;56376;53.356;-1.748;2022-09-09T07:25:00;98418.47;;;13.63;100.00
69257;BME280;56376;53.356;-1.748;2022-09-09T07:27:27;98412.09;;;13.67;100.00
69257;BME280;56376;53.356;-1.748;2022-09-09T07:29:53;98417.03;;;13.72;100.00
69257;BME280;56376;53.356;-1.748;2022-09-09T07:32:19;98417.66;;;13.75;100.00
69257;BME280;56376;53.356;-1.748;2022-09-09T07:34:45;98420.00;;;13.80;100.00
69257;BME280;56376;53.356;-1.748;2022-09-09T07:37:12;98425.88;;;13.83;100.00
69257;BME280;56376;53.356;-1.748;2022-09-09T07:39:38;98419.59;;;13.86;100.00
69257;BME280;56376;53.356;-1.748;2022-09-09T07:42:04;98422.84;;;13.90;100.00
69257;BME280;56376;53.356;-1.748;2022-09-09T07:44:30;98426.09;;;13.93;100.00
69257;BME280;56376;53.356;-1.748;2022-09-09T07:47:00;98424.19;;;13.95;100.00
69257;BME280;56376;53.356;-1.748;2022-09-09T07:49:25;98430.94;;;13.99;100.00
69257;BME280;56376;53.356;-1.748;2022-09-09T07:51:51;98429.88;;;14.02;100.00
69257;BME280;56376;53.356;-1.748;2022-09-09T07:54:18;98429.59;;;14.06;100.00
69257;BME280;56376;53.356;-1.748;2022-09-09T07:56:49;98432.00;;;14.10;100.00
69257;BME280;56376;53.356;-1.748;2022-09-09T07:59:15;98435.13;;;14.15;100.00
69257;BME280;56376;53.356;-1.748;2022-09-09T08:01:47;98440.19;;;14.18;100.00
69257;BME280;56376;53.356;-1.748;2022-09-09T08:04:16;98444.38;;;14.20;100.00
69257;BME280;56376;53.356;-1.748;2022-09-09T08:06:47;98436.19;;;14.25;100.00
69257;BME280;56376;53.356;-1.748;2022-09-09T08:09:13;98443.03;;;14.27;100.00
69257;BME280;56376;53.356;-1.748;2022-09-09T08:11:40;98447.22;;;14.30;100.00
69257;BME280;56376;53.356;-1.748;2022-09-09T08:14:07;98455.00;;;14.32;100.00
69257;BME280;56376;53.356;-1.748;2022-09-09T08:16:35;98455.63;;;14.35;100.00
69257;BME280;56376;53.356;-1.748;2022-09-09T08:19:03;98451.13;;;14.37;100.00
69257;BME280;56376;53.356;-1.748;2022-09-09T08:21:30;98455.41;;;14.38;100.00
69257;BME280;56376;53.356;-1.748;2022-09-09T08:23:59;98468.44;;;14.40;100.00
69257;BME280;56376;53.356;-1.748;2022-09-09T08:26:26;98462.13;;;14.42;100.00
69257;BME280;56376;53.356;-1.748;2022-09-09T08:28:54;98458.56;;;14.43;100.00
69257;BME280;56376;53.356;-1.748;2022-09-09T08:31:27;98472.34;;;14.47;100.00
69257;BME280;56376;53.356;-1.748;2022-09-09T08:33:54;98472.13;;;14.50;100.00
69257;BME280;56376;53.356;-1.748;2022-09-09T08:36:23;98478.75;;;14.56;100.00
69257;BME280;56376;53.356;-1.748;2022-09-09T08:38:51;98479.41;;;14.59;100.00
69257;BME280;56376;53.356;-1.748;2022-09-09T08:49:38;98485.38;;;14.74;100.00
69257;BME280;56376;53.356;-1.748;2022-09-09T08:52:17;98485.91;;;14.79;100.00
69257;BME280;56376;53.356;-1.748;2022-09-09T08:54:45;98487.47;;;14.82;100.00
69257;BME280;56376;53.356;-1.748;2022-09-09T08:57:16;98491.69;;;14.84;100.00
69257;BME280;56376;53.356;-1.748;2022-09-09T08:59:43;98496.94;;;14.84;100.00
69257;BME280;56376;53.356;-1.748;2022-09-09T09:02:26;98501.13;;;14.87;100.00
69257;BME280;56376;53.356;-1.748;2022-09-09T09:05:09;98502.81;;;14.88;100.00
69257;BME280;56376;53.356;-1.748;2022-09-09T09:08:11;98499.22;;;14.89;100.00
69257;BME280;56376;53.356;-1.748;2022-09-09T09:10:48;98498.28;;;14.90;100.00
69257;BME280;56376;53.356;-1.748;2022-09-09T09:13:21;98498.06;;;14.93;100.00
69257;BME280;56376;53.356;-1.748;2022-09-09T09:16:00;98501.72;;;15.03;100.00
69257;BME280;56376;53.356;-1.748;2022-09-09T09:18:27;98495.69;;;15.14;100.00
69257;BME280;56376;53.356;-1.748;2022-09-09T09:21:14;98495.47;;;15.30;100.00
69257;BME280;56376;53.356;-1.748;2022-09-09T09:23:53;98493.03;;;15.51;100.00
69257;BME280;56376;53.356;-1.748;2022-09-09T09:26:20;98495.91;;;15.72;100.00
69257;BME280;56376;53.356;-1.748;2022-09-09T09:28:47;98502.47;;;15.90;100.00
69257;BME280;56376;53.356;-1.748;2022-09-09T09:31:13;98506.81;;;16.02;100.00
69257;BME280;56376;53.356;-1.748;2022-09-09T09:36:12;98505.69;;;16.18;100.00
69257;BME280;56376;53.356;-1.748;2022-09-09T09:38:58;98505.00;;;16.38;100.00
69257;BME280;56376;53.356;-1.748;2022-09-09T09:41:36;98512.81;;;16.51;99.01
69257;BME280;56376;53.356;-1.748;2022-09-09T09:44:04;98511.97;;;16.62;97.29
69257;BME280;56376;53.356;-1.748;2022-09-09T09:46:32;98525.28;;;16.72;97.62
69257;BME280;56376;53.356;-1.748;2022-09-09T09:49:02;98522.44;;;16.86;96.83
69257;BME280;56376;53.356;-1.748;2022-09-09T09:51:30;98530.94;;;17.01;93.48
69257;BME280;56376;53.356;-1.748;2022-09-09T09:56:39;98537.16;;;17.22;92.17
69257;BME280;56376;53.356;-1.748;2022-09-09T09:59:05;98535.59;;;17.31;91.06
69257;BME280;56376;53.356;-1.748;2022-09-09T10:01:32;98534.03;;;17.40;91.02
69257;BME280;56376;53.356;-1.748;2022-09-09T10:04:01;98541.44;;;17.46;90.52
69257;BME280;56376;53.356;-1.748;2022-09-09T10:06:32;98544.81;;;17.48;91.17
69257;BME280;56376;53.356;-1.748;2022-09-09T10:08:58;98540.50;;;17.47;90.89
69257;BME280;56376;53.356;-1.748;2022-09-09T10:11:41;98542.31;;;17.46;90.45
69257;BME280;56376;53.356;-1.748;2022-09-09T10:19:33;98547.47;;;17.37;88.21
69257;BME280;56376;53.356;-1.748;2022-09-09T10:22:10;98546.03;;;17.33;89.00
69257;BME280;56376;53.356;-1.748;2022-09-09T10:30:19;98560.88;;;17.34;87.72
69257;BME280;56376;53.356;-1.748;2022-09-09T10:35:35;98558.53;;;17.19;87.24
69257;BME280;56376;53.356;-1.748;2022-09-09T10:38:16;98562.34;;;17.15;86.43
69257;BME280;56376;53.356;-1.748;2022-09-09T10:48:56;98561.28;;;17.29;84.48
69257;BME280;56376;53.356;-1.748;2022-09-09T10:51:40;98558.16;;;17.35;83.59
69257;BME280;56376;53.356;-1.748;2022-09-09T10:56:44;98554.78;;;17.44;82.05
69257;BME280;56376;53.356;-1.748;2022-09-09T10:59:19;98554.28;;;17.50;81.65
69257;BME280;56376;53.356;-1.748;2022-09-09T11:01:53;98555.84;;;17.53;81.21
69257;BME280;56376;53.356;-1.748;2022-09-09T11:04:28;98556.31;;;17.58;81.88
69257;BME280;56376;53.356;-1.748;2022-09-09T11:07:00;98556.91;;;17.62;78.22
69257;BME280;56376;53.356;-1.748;2022-09-09T11:09:33;98553.88;;;17.66;77.54
69257;BME280;56376;53.356;-1.748;2022-09-09T11:12:01;98548.81;;;17.74;78.45
69257;BME280;56376;53.356;-1.748;2022-09-09T11:14:54;98553.25;;;17.85;79.30
69257;BME280;56376;53.356;-1.748;2022-09-09T11:17:26;98555.00;;;17.96;80.21
69257;BME280;56376;53.356;-1.748;2022-09-09T11:19:55;98546.91;;;18.09;81.02
69257;BME280;56376;53.356;-1.748;2022-09-09T11:22:42;98554.91;;;18.19;81.17
69257;BME280;56376;53.356;-1.748;2022-09-09T11:25:37;98546.50;;;18.25;77.41
69257;BME280;56376;53.356;-1.748;2022-09-09T11:28:35;98560.09;;;18.20;77.50
69257;BME280;56376;53.356;-1.748;2022-09-09T11:31:32;98555.38;;;18.24;79.57
69257;BME280;56376;53.356;-1.748;2022-09-09T11:42:22;98570.22;;;18.15;79.90
69257;BME280;56376;53.356;-1.748;2022-09-09T11:44:48;98569.22;;;18.16;80.12
69257;BME280;56376;53.356;-1.748;2022-09-09T11:47:30;98570.91;;;18.17;79.94
69257;BME280;56376;53.356;-1.748;2022-09-09T11:52:42;98562.47;;;18.23;79.58
69257;BME280;56376;53.356;-1.748;2022-09-09T11:55:31;98572.78;;;18.26;76.68
69257;BME280;56376;53.356;-1.748;2022-09-09T11:58:21;98574.59;;;18.26;76.46
69257;BME280;56376;53.356;-1.748;2022-09-09T12:00:48;98572.41;;;18.31;76.41
69257;BME280;56376;53.356;-1.748;2022-09-09T12:05:59;98568.94;;;18.51;77.80
69257;BME280;56376;53.356;-1.748;2022-09-09T12:08:29;98568.16;;;18.60;77.62
69257;BME280;56376;53.356;-1.748;2022-09-09T12:10:57;98559.31;;;18.71;78.09
69257;BME280;56376;53.356;-1.748;2022-09-09T12:13:24;98560.63;;;18.77;76.29
69257;BME280;56376;53.356;-1.748;2022-09-09T12:15:58;98567.88;;;18.85;74.17
69257;BME280;56376;53.356;-1.748;2022-09-09T12:18:35;98566.09;;;18.85;75.01
69257;BME280;56376;53.356;-1.748;2022-09-09T12:23:54;98566.28;;;18.93;75.24
69257;BME280;56376;53.356;-1.748;2022-09-09T12:26:32;98571.03;;;18.99;76.09
69257;BME280;56376;53.356;-1.748;2022-09-09T12:29:01;98572.97;;;18.97;75.57
69257;BME280;56376;53.356;-1.748;2022-09-09T12:37:00;98580.72;;;18.89;74.02
69257;BME280;56376;53.356;-1.748;2022-09-09T12:39:32;98578.19;;;18.78;76.57
69257;BME280;56376;53.356;-1.748;2022-09-09T12:41:59;98592.16;;;18.69;79.34
69257;BME280;56376;53.356;-1.748;2022-09-09T12:44:25;98596.59;;;18.68;79.47
69257;BME280;56376;53.356;-1.748;2022-09-09T12:46:53;98601.94;;;18.57;77.18
69257;BME280;56376;53.356;-1.748;2022-09-09T12:49:36;98611.88;;;18.44;77.59
69257;BME280;56376;53.356;-1.748;2022-09-09T12:52:29;98620.97;;;18.30;78.33
69257;BME280;56376;53.356;-1.748;2022-09-09T12:54:56;98616.31;;;18.22;79.94
69257;BME280;56376;53.356;-1.748;2022-09-09T12:57:23;98615.72;;;18.19;79.43
69257;BME280;56376;53.356;-1.748;2022-09-09T12:59:51;98622.34;;;18.13;79.66
69257;BME280;56376;53.356;-1.748;2022-09-09T13:02:20;98631.34;;;18.10;80.06
69257;BME280;56376;53.356;-1.748;2022-09-09T13:04:46;98634.38;;;18.06;79.28
69257;BME280;56376;53.356;-1.748;2022-09-09T13:07:13;98633.91;;;18.01;80.10
69257;BME280;56376;53.356;-1.748;2022-09-09T13:09:39;98634.88;;;18.00;81.41
69257;BME280;56376;53.356;-1.748;2022-09-09T13:12:06;98642.09;;;17.98;81.38
69257;BME280;56376;53.356;-1.748;2022-09-09T13:14:36;98648.47;;;17.95;81.25
69257;BME280;56376;53.356;-1.748;2022-09-09T13:17:06;98649.28;;;17.95;80.61
69257;BME280;56376;53.356;-1.748;2022-09-09T13:19:38;98659.03;;;17.95;78.04
69257;BME280;56376;53.356;-1.748;2022-09-09T13:22:27;98663.22;;;17.86;74.75
69257;BME280;56376;53.356;-1.748;2022-09-09T13:25:17;98658.44;;;17.80;76.67
69257;BME280;56376;53.356;-1.748;2022-09-09T13:27:59;98660.47;;;17.77;78.27
69257;BME280;56376;53.356;-1.748;2022-09-09T13:30:27;98652.41;;;17.78;80.59
69257;BME280;56376;53.356;-1.748;2022-09-09T13:33:20;98666.13;;;17.83;83.01
69257;BME280;56376;53.356;-1.748;2022-09-09T13:38:16;98665.66;;;17.89;84.74
69257;BME280;56376;53.356;-1.748;2022-09-09T13:41:02;98670.31;;;17.97;86.31
69257;BME280;56376;53.356;-1.748;2022-09-09T13:43:36;98666.34;;;18.03;86.54
69257;BME280;56376;53.356;-1.748;2022-09-09T13:46:05;98672.91;;;18.08;87.97
69257;BME280;56376;53.356;-1.748;2022-09-09T13:48:31;98661.97;;;18.13;86.70
69257;BME280;56376;53.356;-1.748;2022-09-09T13:51:03;98664.72;;;18.11;84.98
69257;BME280;56376;53.356;-1.748;2022-09-09T13:53:31;98656.59;;;18.14;85.56
69257;BME280;56376;53.356;-1.748;2022-09-09T13:55:58;98653.69;;;18.17;85.85
69257;BME280;56376;53.356;-1.748;2022-09-09T13:58:24;98655.09;;;18.22;85.88
69257;BME280;56376;53.356;-1.748;2022-09-09T14:00:52;98656.28;;;18.29;86.03
69257;BME280;56376;53.356;-1.748;2022-09-09T14:03:18;98651.44;;;18.34;81.52
69257;BME280;56376;53.356;-1.748;2022-09-09T14:05:44;98650.34;;;18.36;81.46
69257;BME280;56376;53.356;-1.748;2022-09-09T14:08:15;98656.97;;;18.42;81.74
69257;BME280;56376;53.356;-1.748;2022-09-09T14:10:41;98651.69;;;18.42;80.90
69257;BME280;56376;53.356;-1.748;2022-09-09T14:13:06;98644.22;;;18.47;80.92
69257;BME280;56376;53.356;-1.748;2022-09-09T14:15:33;98641.59;;;18.57;80.76
69257;BME280;56376;53.356;-1.748;2022-09-09T14:17:58;98646.03;;;18.68;79.16
69257;BME280;56376;53.356;-1.748;2022-09-09T14:20:24;98644.31;;;18.67;75.59
69257;BME280;56376;53.356;-1.748;2022-09-09T14:22:49;98657.31;;;18.70;77.44
69257;BME280;56376;53.356;-1.748;2022-09-09T14:25:15;98653.97;;;18.68;76.20
69257;BME280;56376;53.356;-1.748;2022-09-09T14:27:40;98660.34;;;18.65;75.82
69257;BME280;56376;53.356;-1.748;2022-09-09T14:30:08;98657.47;;;18.57;76.20
69257;BME280;56376;53.356;-1.748;2022-09-09T14:32:34;98665.81;;;18.52;76.86
69257;BME280;56376;53.356;-1.748;2022-09-09T14:34:59;98674.84;;;18.50;77.22
69257;BME280;56376;53.356;-1.748;2022-09-09T14:37:25;98678.22;;;18.41;76.97